createdAt,value
2018-07-08T00:02:33.850Z,4.02
2018-07-08T00:08:28.838Z,4.09
2018-07-08T00:14:23.889Z,3.81
2018-07-08T00:20:18.873Z,3.79
2018-07-08T00:26:13.847Z,4.2
2018-07-08T00:32:08.837Z,3.53
2018-07-08T00:38:03.863Z,3.77
2018-07-08T00:43:58.868Z,4.53
2018-07-08T00:49:53.878Z,4.27
2018-07-08T00:55:48.938Z,4.58
2018-07-08T01:01:44.016Z,4.68
2018-07-08T01:07:38.874Z,4.89
2018-07-08T01:13:33.896Z,4.39
2018-07-08T01:19:28.863Z,4.49
2018-07-08T01:25:23.868Z,4.33
2018-07-08T01:31:18.877Z,4.32
2018-07-08T01:37:13.876Z,4.42
2018-07-08T01:43:08.899Z,4.27
2018-07-08T01:49:03.933Z,4.35
2018-07-08T01:54:58.913Z,4.17
2018-07-08T02:00:53.886Z,4.27
2018-07-08T02:06:48.936Z,4.53
2018-07-08T02:12:43.934Z,4.28
2018-07-08T02:18:39.249Z,4.54
2018-07-08T02:24:34.452Z,4.54
2018-07-08T02:30:28.988Z,5.74
2018-07-08T02:36:23.954Z,3.69
2018-07-08T02:42:18.918Z,3.63
2018-07-08T02:48:13.931Z,3.32
2018-07-08T02:54:08.999Z,3.73
2018-07-08T03:00:04.190Z,3.54
2018-07-08T03:05:58.943Z,3.43
2018-07-08T03:11:53.944Z,3.53
2018-07-08T03:17:48.954Z,3.57
2018-07-08T03:23:43.938Z,3.31
2018-07-08T03:29:38.981Z,3.8
2018-07-08T03:35:33.961Z,3.35
2018-07-08T03:41:28.943Z,3.37
2018-07-08T03:47:23.950Z,3.71
2018-07-08T03:53:18.971Z,4.24
2018-07-08T03:59:13.978Z,3.54
2018-07-08T04:05:08.990Z,3.3
2018-07-08T04:11:03.965Z,3.87
2018-07-08T04:16:58.984Z,3.97
2018-07-08T04:22:53.970Z,4.34
2018-07-08T04:28:49.026Z,3.86
2018-07-08T04:34:44.011Z,4.25
2018-07-08T04:40:38.983Z,4.87
2018-07-08T04:46:34.019Z,4.63
2018-07-08T04:52:29.001Z,4.58
2018-07-08T04:58:24.026Z,5.42
2018-07-08T05:04:19.028Z,4.76
2018-07-08T05:10:14.009Z,4.68
2018-07-08T05:16:09.010Z,5.08
2018-07-08T05:22:04.026Z,4.57
2018-07-08T05:27:59.015Z,5.18
2018-07-08T05:33:54.006Z,4.8
2018-07-08T05:39:49.022Z,5.68
2018-07-08T05:45:44.058Z,4.69
2018-07-08T05:51:39.048Z,5.36
2018-07-08T05:57:34.053Z,5.31
2018-07-08T06:03:29.054Z,5.69
2018-07-08T06:09:24.090Z,5.44
2018-07-08T06:15:19.059Z,5.63
2018-07-08T06:21:14.090Z,5.22
2018-07-08T06:27:09.122Z,5.49
2018-07-08T06:33:04.124Z,5.18
2018-07-08T06:38:59.069Z,5.68
2018-07-08T06:44:54.061Z,5.34
2018-07-08T06:50:49.061Z,5.67
2018-07-08T06:56:44.076Z,5.62
2018-07-08T07:02:39.094Z,6.45
2018-07-08T07:08:34.079Z,6.53
2018-07-08T07:14:29.091Z,6.25
2018-07-08T07:20:24.120Z,6.81
2018-07-08T07:26:19.099Z,5.68
2018-07-08T07:32:14.192Z,6.69
2018-07-08T07:38:09.148Z,5.01
2018-07-08T07:44:04.093Z,6.58
2018-07-08T07:49:59.102Z,5.96
2018-07-08T07:55:54.100Z,4.77
2018-07-08T08:01:49.117Z,5.85
2018-07-08T08:07:44.132Z,4.81
2018-07-08T08:13:39.122Z,4.52
2018-07-08T08:19:34.175Z,5.41
2018-07-08T08:25:29.148Z,6.01
2018-07-08T08:31:24.123Z,5.11
2018-07-08T08:37:19.138Z,4.16
2018-07-08T08:43:14.144Z,5.77
2018-07-08T08:49:09.180Z,5.04
2018-07-08T08:55:04.132Z,5.73
2018-07-08T09:00:59.141Z,5.68
2018-07-08T09:06:54.160Z,4.48
2018-07-08T09:12:49.142Z,4.56
2018-07-08T09:18:44.144Z,4.85
2018-07-08T09:24:39.184Z,5.01
2018-07-08T09:30:34.173Z,4.37
2018-07-08T09:36:29.170Z,3.47
2018-07-08T09:42:24.167Z,3.44
2018-07-08T09:48:19.216Z,3.82
2018-07-08T09:54:14.209Z,3.57
2018-07-08T10:00:09.196Z,3.67
2018-07-08T10:06:04.220Z,3.33
2018-07-08T10:11:59.201Z,3.41
2018-07-08T10:17:54.388Z,3.07
2018-07-08T10:23:49.197Z,3.74
2018-07-08T10:29:44.204Z,2.89
2018-07-08T10:35:39.185Z,3.01
2018-07-08T10:41:34.202Z,3.15
2018-07-08T10:47:29.246Z,2.64
2018-07-08T10:53:24.230Z,2.9
2018-07-08T10:59:19.229Z,2.91
2018-07-08T11:05:14.214Z,2.87
2018-07-08T11:11:09.238Z,3.05
2018-07-08T11:17:04.213Z,3.03
2018-07-08T11:22:59.239Z,2.97
2018-07-08T11:28:54.255Z,3.03
2018-07-08T11:34:49.234Z,2.93
2018-07-08T11:40:44.316Z,2.55
2018-07-08T11:46:39.287Z,2.97
2018-07-08T11:52:34.229Z,3.21
2018-07-08T11:58:29.260Z,2.69
2018-07-08T12:04:24.321Z,2.88
2018-07-08T12:10:19.857Z,2.88
2018-07-08T12:16:14.777Z,2.88
2018-07-08T12:22:09.910Z,2.88
2018-07-08T12:28:04.760Z,3.1
2018-07-08T12:33:59.803Z,3.1
2018-07-08T12:39:54.806Z,3.1
2018-07-08T12:45:49.824Z,3.1
2018-07-08T12:51:44.827Z,3.1
2018-07-08T12:57:39.864Z,3.1
2018-07-08T13:03:34.863Z,3.1
2018-07-08T13:09:29.873Z,3.1
2018-07-08T13:15:24.802Z,3.1
2018-07-08T13:21:19.875Z,3.1
2018-07-08T13:27:14.832Z,3.1
2018-07-08T13:33:09.881Z,3.1
2018-07-08T13:39:04.909Z,3.1
2018-07-08T13:44:59.868Z,3.1
2018-07-08T13:50:54.847Z,3.1
2018-07-08T13:56:49.858Z,3.1
2018-07-08T14:02:44.852Z,3.1
2018-07-08T14:08:39.887Z,3.1
2018-07-08T14:14:34.924Z,3.1
2018-07-08T14:20:29.887Z,3.1
2018-07-08T14:26:24.919Z,3.1
2018-07-08T14:32:19.879Z,3.1
2018-07-08T14:38:14.942Z,3.1
2018-07-08T14:44:09.875Z,3.1
2018-07-08T14:50:04.912Z,3.1
2018-07-08T14:55:59.991Z,3.1
2018-07-08T15:01:54.940Z,3.1
2018-07-08T15:07:49.972Z,3.1
2018-07-08T15:13:44.904Z,3.1
2018-07-08T15:20:10.920Z,3.1
2018-07-08T15:25:34.906Z,3.1
2018-07-08T15:31:29.848Z,3.1
2018-07-08T15:37:24.921Z,3.1
2018-07-08T15:43:19.909Z,3.1
2018-07-08T15:49:14.930Z,3.1
2018-07-08T15:55:09.994Z,3.1
2018-07-08T16:01:04.922Z,3.1
2018-07-08T16:06:59.930Z,3.1
2018-07-08T16:12:54.947Z,3.1
2018-07-08T16:18:50.040Z,3.1
2018-07-08T16:24:44.962Z,3.1
2018-07-08T16:30:40.000Z,3.1
2018-07-08T16:36:34.999Z,3.1
2018-07-08T16:42:29.964Z,3.1
2018-07-08T16:48:25.048Z,3.1
2018-07-08T16:54:20.030Z,3.1
2018-07-08T17:00:15.005Z,3.1
2018-07-08T17:06:09.995Z,3.1
2018-07-08T17:12:05.019Z,3.1
2018-07-08T17:17:59.997Z,3.1
2018-07-08T17:23:54.977Z,3.1
2018-07-08T17:29:50.034Z,3.1
2018-07-08T17:35:45.014Z,3.1
2018-07-08T17:41:40.034Z,3.1
2018-07-08T17:47:35.003Z,3.1
2018-07-08T17:53:29.986Z,3.1
2018-07-08T17:59:25.054Z,3.1
2018-07-08T18:05:20.027Z,3.1
2018-07-08T18:11:15.021Z,3.1
2018-07-08T18:17:10.026Z,3.1
2018-07-08T18:23:05.075Z,3.1
2018-07-08T18:29:00.045Z,3.1
2018-07-08T18:34:55.022Z,3.1
2018-07-08T18:40:50.059Z,3.1
2018-07-08T18:46:45.033Z,3.1
2018-07-08T18:52:39.999Z,3.1
2018-07-08T18:58:35.018Z,3.1
2018-07-08T19:04:30.062Z,3.1
2018-07-08T19:10:25.050Z,3.1
2018-07-08T19:16:20.066Z,3.1
2018-07-08T19:22:15.110Z,3.1
2018-07-08T19:28:10.131Z,3.1
2018-07-08T19:34:05.147Z,3.1
2018-07-08T19:40:00.142Z,3.1
2018-07-08T19:45:55.107Z,3.1
2018-07-08T19:51:50.107Z,3.1
2018-07-08T19:57:45.094Z,3.1
2018-07-08T20:03:40.138Z,3.1
2018-07-08T20:09:35.155Z,3.1
2018-07-08T20:15:30.141Z,3.1
2018-07-08T20:21:25.417Z,3.1
2018-07-08T20:27:20.124Z,3.1
2018-07-08T20:33:15.151Z,3.1
2018-07-08T20:39:10.083Z,3.1
2018-07-08T20:45:04.839Z,3.3
2018-07-08T20:51:00.103Z,3.3
2018-07-08T20:56:55.184Z,3.3
2018-07-08T21:02:50.145Z,3.3
2018-07-08T21:08:45.094Z,3.3
2018-07-08T21:14:40.136Z,3.3
2018-07-08T21:20:35.099Z,3.3
2018-07-08T21:26:30.144Z,3.3
2018-07-08T21:32:25.132Z,3.3
2018-07-08T21:38:20.178Z,3.3
2018-07-08T21:44:15.216Z,3.3
2018-07-08T21:50:10.274Z,3.3
2018-07-08T21:56:05.246Z,3.3
2018-07-08T22:02:00.222Z,3.3
2018-07-08T22:07:55.698Z,3.29
2018-07-08T22:13:50.223Z,3.3
2018-07-08T22:19:45.150Z,3.3
2018-07-08T22:25:40.211Z,3.3
2018-07-08T22:31:35.160Z,3.3
2018-07-08T22:37:30.169Z,3.3
2018-07-08T22:43:25.138Z,3.3
2018-07-08T22:49:20.181Z,3.3
2018-07-08T22:55:15.159Z,3.3
2018-07-08T23:01:10.162Z,3.3
2018-07-08T23:07:05.204Z,3.3
2018-07-08T23:13:00.242Z,3.3
2018-07-08T23:18:55.181Z,3.3
2018-07-08T23:24:50.198Z,3.3
2018-07-08T23:30:45.221Z,3.3
2018-07-08T23:36:40.172Z,3.3
2018-07-08T23:42:35.213Z,3.3
2018-07-08T23:48:30.216Z,3.3
2018-07-08T23:54:25.187Z,3.3
